67.0°F
Current conditions from King Hill
Updated every 5 minutes
 
  Tuesday July 29, 2014

Station Historical Data
Daily Summary for August 12, 2011 Units:  Both    English   Metric
« Previous Day
Next Day »
Daily Weekly Monthly Yearly Custom
  High: Low: Average:
Temperature: 79.0 °F /  26.1 °C 55.4 °F /  13 °C 64.9 °F /  18.3 °C
Dew Point: 63.5 °F /  17.5 °C 53.1 °F /  11.7 °C 57.3 °F /  14.1 °C
Humidity: 96% 48% 78%
Wind Speed: 6.0mph /  9.7km/h - 2.3mph /  3.7km/h
Wind Gust: 15.0mph /  24.1km/h - -
Wind- - West
Pressure: 29.97 in /  1014.8 hPa 29.83 in /  1010 hPa -
Precipitation: 0.08 in /  2 mm    
Historical Graphs
 
 
Tabular Data for August 12, 2011
Time Temperature Dew Point Pressure Wind Wind Speed Wind Gust Humidity Daily Rainfall
00:00 59.9 °F /  15.5 °C 55.1 °F /  12.8 °C 29.83in /  1010hPa WSW 1.0mph /  1.6km/h 5.0mph /  8km/h 84% 0.00in /  0mm
00:05 59.9 °F /  15.5 °C 55.1 °F /  12.8 °C 29.83in /  1010hPa Calm   5.0mph /  8km/h 84% 0.00in /  0mm
00:10 59.9 °F /  15.5 °C 55.1 °F /  12.8 °C 29.83in /  1010hPa Calm   3.0mph /  4.8km/h 84% 0.00in /  0mm
00:15 59.9 °F /  15.5 °C 55.4 °F /  13 °C 29.83in /  1010hPa Calm   1.0mph /  1.6km/h 85% 0.00in /  0mm
00:20 59.9 °F /  15.5 °C 55.4 °F /  13 °C 29.83in /  1010hPa Calm   1.0mph /  1.6km/h 85% 0.00in /  0mm
00:25 59.9 °F /  15.5 °C 55.4 °F /  13 °C 29.83in /  1010hPa Calm   1.0mph /  1.6km/h 85% 0.00in /  0mm
00:30 59.9 °F /  15.5 °C 55.4 °F /  13 °C 29.83in /  1010hPa Calm   1.0mph /  1.6km/h 85% 0.00in /  0mm
00:35 59.9 °F /  15.5 °C 55.4 °F /  13 °C 29.83in /  1010hPa Calm   1.0mph /  1.6km/h 85% 0.00in /  0mm
00:40 59.9 °F /  15.5 °C 55.4 °F /  13 °C 29.83in /  1010hPa Calm   1.0mph /  1.6km/h 85% 0.00in /  0mm
00:45 59.8 °F /  15.4 °C 55.3 °F /  12.9 °C 29.83in /  1010hPa Calm   1.0mph /  1.6km/h 85% 0.00in /  0mm
00:50 59.8 °F /  15.4 °C 55.3 °F /  12.9 °C 29.83in /  1010hPa Calm   1.0mph /  1.6km/h 85% 0.00in /  0mm
01:00 59.9 °F /  15.5 °C 55.4 °F /  13 °C 29.83in /  1010hPa Calm   1.0mph /  1.6km/h 85% 0.00in /  0mm
01:05 60.0 °F /  15.6 °C 55.5 °F /  13.1 °C 29.83in /  1010hPa Calm   1.0mph /  1.6km/h 85% 0.00in /  0mm
01:10 60.1 °F /  15.6 °C 55.6 °F /  13.1 °C 29.83in /  1010hPa Calm   1.0mph /  1.6km/h 85% 0.00in /  0mm
01:15 60.2 °F /  15.7 °C 55.7 °F /  13.2 °C 29.83in /  1010hPa Calm   1.0mph /  1.6km/h 85% 0.00in /  0mm
01:25 60.5 °F /  15.8 °C 55.6 °F /  13.1 °C 29.83in /  1010hPa Calm   1.0mph /  1.6km/h 84% 0.00in /  0mm
01:30 60.7 °F /  15.9 °C 55.8 °F /  13.2 °C 29.83in /  1010hPa Calm   5.0mph /  8km/h 84% 0.00in /  0mm
01:35 60.7 °F /  15.9 °C 55.5 °F /  13.1 °C 29.83in /  1010hPa Calm   5.0mph /  8km/h 83% 0.00in /  0mm
01:40 60.7 °F /  15.9 °C 55.8 °F /  13.2 °C 29.83in /  1010hPa Calm   3.0mph /  4.8km/h 84% 0.00in /  0mm
01:45 60.7 °F /  15.9 °C 55.5 °F /  13.1 °C 29.83in /  1010hPa Calm   1.0mph /  1.6km/h 83% 0.00in /  0mm
01:50 60.7 °F /  15.9 °C 55.5 °F /  13.1 °C 29.83in /  1010hPa Calm   1.0mph /  1.6km/h 83% 0.00in /  0mm
01:55 60.7 °F /  15.9 °C 55.8 °F /  13.2 °C 29.83in /  1010hPa Calm   1.0mph /  1.6km/h 84% 0.00in /  0mm
02:05 60.7 °F /  15.9 °C 55.5 °F /  13.1 °C 29.83in /  1010hPa Calm   4.0mph /  6.4km/h 83% 0.00in /  0mm
02:10 60.8 °F /  16 °C 55.6 °F /  13.1 °C 29.83in /  1010hPa Calm   4.0mph /  6.4km/h 83% 0.00in /  0mm
02:15 60.9 °F /  16.1 °C 55.7 °F /  13.2 °C 29.83in /  1010hPa Calm   3.0mph /  4.8km/h 83% 0.00in /  0mm
02:20 60.9 °F /  16.1 °C 55.7 °F /  13.2 °C 29.83in /  1010hPa West 1.0mph /  1.6km/h 3.0mph /  4.8km/h 83% 0.00in /  0mm
02:25 60.9 °F /  16.1 °C 55.7 °F /  13.2 °C 29.83in /  1010hPa Calm   5.0mph /  8km/h 83% 0.00in /  0mm
02:30 60.9 °F /  16.1 °C 56.0 °F /  13.3 °C 29.83in /  1010hPa WNW 1.0mph /  1.6km/h 6.0mph /  9.7km/h 84% 0.00in /  0mm
02:35 61.0 °F /  16.1 °C 55.5 °F /  13.1 °C 29.83in /  1010hPa WSW 1.0mph /  1.6km/h 7.0mph /  11.3km/h 82% 0.00in /  0mm
02:40 61.1 °F /  16.2 °C 55.6 °F /  13.1 °C 29.83in /  1010hPa West 1.0mph /  1.6km/h 7.0mph /  11.3km/h 82% 0.00in /  0mm
02:45 61.1 °F /  16.2 °C 55.6 °F /  13.1 °C 29.83in /  1010hPa West 1.0mph /  1.6km/h 7.0mph /  11.3km/h 82% 0.00in /  0mm
02:50 61.2 °F /  16.2 °C 55.7 °F /  13.2 °C 29.83in /  1010hPa WNW 1.0mph /  1.6km/h 7.0mph /  11.3km/h 82% 0.00in /  0mm
02:55 61.2 °F /  16.2 °C 55.7 °F /  13.2 °C 29.83in /  1010hPa Calm   5.0mph /  8km/h 82% 0.00in /  0mm
03:00 61.2 °F /  16.2 °C 56.3 °F /  13.5 °C 29.84in /  1010.4hPa WSW 1.0mph /  1.6km/h 8.0mph /  12.9km/h 84% 0.01in /  0.3mm
03:05 60.6 °F /  15.9 °C 56.1 °F /  13.4 °C 29.84in /  1010.4hPa WSW 1.0mph /  1.6km/h 9.0mph /  14.5km/h 85% 0.02in /  0.5mm
03:10 60.0 °F /  15.6 °C 55.8 °F /  13.2 °C 29.84in /  1010.4hPa West 3.0mph /  4.8km/h 9.0mph /  14.5km/h 86% 0.03in /  0.8mm
03:15 59.7 °F /  15.4 °C 55.8 °F /  13.2 °C 29.84in /  1010.4hPa West 3.0mph /  4.8km/h 8.0mph /  12.9km/h 87% 0.04in /  1mm
03:20 59.3 °F /  15.2 °C 55.7 °F /  13.2 °C 29.84in /  1010.4hPa West 3.0mph /  4.8km/h 11.0mph /  17.7km/h 88% 0.04in /  1mm
03:25 59.0 °F /  15 °C 55.8 °F /  13.2 °C 29.84in /  1010.4hPa WNW 1.0mph /  1.6km/h 11.0mph /  17.7km/h 89% 0.05in /  1.3mm
03:35 59.0 °F /  15 °C 56.1 °F /  13.4 °C 29.84in /  1010.4hPa Calm   1.0mph /  1.6km/h 90% 0.08in /  2mm
03:40 59.0 °F /  15 °C 56.1 °F /  13.4 °C 29.84in /  1010.4hPa Calm   2.0mph /  3.2km/h 90% 0.08in /  2mm
03:45 58.9 °F /  14.9 °C 56.0 °F /  13.3 °C 29.84in /  1010.4hPa Calm   2.0mph /  3.2km/h 90% 0.08in /  2mm
03:50 58.6 °F /  14.8 °C 55.7 °F /  13.2 °C 29.84in /  1010.4hPa Calm   3.0mph /  4.8km/h 90% 0.08in /  2mm
03:55 58.4 °F /  14.7 °C 55.5 °F /  13.1 °C 29.84in /  1010.4hPa Calm   5.0mph /  8km/h 90% 0.08in /  2mm
04:00 58.2 °F /  14.6 °C 55.3 °F /  12.9 °C 29.84in /  1010.4hPa Calm   5.0mph /  8km/h 90% 0.08in /  2mm
04:05 58.0 °F /  14.4 °C 55.4 °F /  13 °C 29.84in /  1010.4hPa Calm   3.0mph /  4.8km/h 91% 0.08in /  2mm
04:10 57.9 °F /  14.4 °C 55.3 °F /  12.9 °C 29.85in /  1010.7hPa Calm   4.0mph /  6.4km/h 91% 0.08in /  2mm
04:15 57.9 °F /  14.4 °C 55.3 °F /  12.9 °C 29.85in /  1010.7hPa Calm   6.0mph /  9.7km/h 91% 0.08in /  2mm
04:20 57.8 °F /  14.3 °C 55.2 °F /  12.9 °C 29.85in /  1010.7hPa Calm   6.0mph /  9.7km/h 91% 0.08in /  2mm
04:25 57.7 °F /  14.3 °C 55.1 °F /  12.8 °C 29.85in /  1010.7hPa SSW 1.0mph /  1.6km/h 4.0mph /  6.4km/h 91% 0.08in /  2mm
04:30 57.5 °F /  14.2 °C 54.9 °F /  12.7 °C 29.85in /  1010.7hPa SSW 1.0mph /  1.6km/h 4.0mph /  6.4km/h 91% 0.08in /  2mm
04:35 57.3 °F /  14.1 °C 54.7 °F /  12.6 °C 29.85in /  1010.7hPa Calm   3.0mph /  4.8km/h 91% 0.08in /  2mm
04:40 57.1 °F /  13.9 °C 54.5 °F /  12.5 °C 29.85in /  1010.7hPa Calm   3.0mph /  4.8km/h 91% 0.08in /  2mm
04:45 56.9 °F /  13.8 °C 54.3 °F /  12.4 °C 29.85in /  1010.7hPa Calm   4.0mph /  6.4km/h 91% 0.08in /  2mm
04:50 56.8 °F /  13.8 °C 54.2 °F /  12.3 °C 29.85in /  1010.7hPa Calm   4.0mph /  6.4km/h 91% 0.08in /  2mm
04:55 56.7 °F /  13.7 °C 54.1 °F /  12.3 °C 29.85in /  1010.7hPa Calm   1.0mph /  1.6km/h 91% 0.08in /  2mm
05:00 56.5 °F /  13.6 °C 53.9 °F /  12.2 °C 29.85in /  1010.7hPa Calm   1.0mph /  1.6km/h 91% 0.08in /  2mm
05:05 56.3 °F /  13.5 °C 53.7 °F /  12.1 °C 29.85in /  1010.7hPa Calm   1.0mph /  1.6km/h 91% 0.08in /  2mm
05:15 56.2 °F /  13.4 °C 53.9 °F /  12.2 °C 29.85in /  1010.7hPa Calm   4.0mph /  6.4km/h 92% 0.08in /  2mm
05:20 56.0 °F /  13.3 °C 53.7 °F /  12.1 °C 29.85in /  1010.7hPa Calm   4.0mph /  6.4km/h 92% 0.08in /  2mm
05:25 55.9 °F /  13.3 °C 53.6 °F /  12 °C 29.86in /  1011.1hPa Calm   1.0mph /  1.6km/h 92% 0.08in /  2mm
05:30 55.8 °F /  13.2 °C 53.5 °F /  11.9 °C 29.86in /  1011.1hPa Calm   1.0mph /  1.6km/h 92% 0.08in /  2mm
05:35 55.7 °F /  13.2 °C 53.4 °F /  11.9 °C 29.86in /  1011.1hPa Calm   1.0mph /  1.6km/h 92% 0.08in /  2mm
05:40 55.4 °F /  13 °C 53.1 °F /  11.7 °C 29.86in /  1011.1hPa Calm   1.0mph /  1.6km/h 92% 0.08in /  2mm
05:45 55.4 °F /  13 °C 53.1 °F /  11.7 °C 29.86in /  1011.1hPa Calm   1.0mph /  1.6km/h 92% 0.08in /  2mm
05:50 55.6 °F /  13.1 °C 53.6 °F /  12 °C 29.86in /  1011.1hPa Calm   1.0mph /  1.6km/h 93% 0.08in /  2mm
05:55 55.7 °F /  13.2 °C 53.7 °F /  12.1 °C 29.86in /  1011.1hPa Calm   1.0mph /  1.6km/h 93% 0.08in /  2mm
06:05 55.8 °F /  13.2 °C 53.8 °F /  12.1 °C 29.87in /  1011.4hPa Calm   1.0mph /  1.6km/h 93% 0.08in /  2mm
06:10 55.8 °F /  13.2 °C 53.8 °F /  12.1 °C 29.87in /  1011.4hPa Calm   3.0mph /  4.8km/h 93% 0.08in /  2mm
06:15 55.9 °F /  13.3 °C 54.2 °F /  12.3 °C 29.87in /  1011.4hPa Calm   4.0mph /  6.4km/h 94% 0.08in /  2mm
06:20 56.0 °F /  13.3 °C 54.3 °F /  12.4 °C 29.87in /  1011.4hPa Calm   4.0mph /  6.4km/h 94% 0.08in /  2mm
06:25 55.9 °F /  13.3 °C 54.2 °F /  12.3 °C 29.87in /  1011.4hPa Calm   1.0mph /  1.6km/h 94% 0.08in /  2mm
06:35 55.8 °F /  13.2 °C 54.1 °F /  12.3 °C 29.88in /  1011.7hPa SSW 1.0mph /  1.6km/h 3.0mph /  4.8km/h 94% 0.08in /  2mm
06:40 55.8 °F /  13.2 °C 54.1 °F /  12.3 °C 29.88in /  1011.7hPa Calm   3.0mph /  4.8km/h 94% 0.08in /  2mm
06:45 55.9 °F /  13.3 °C 54.2 °F /  12.3 °C 29.88in /  1011.7hPa Calm   1.0mph /  1.6km/h 94% 0.08in /  2mm
06:50 55.9 °F /  13.3 °C 54.2 °F /  12.3 °C 29.88in /  1011.7hPa Calm   1.0mph /  1.6km/h 94% 0.08in /  2mm
06:55 55.9 °F /  13.3 °C 54.2 °F /  12.3 °C 29.88in /  1011.7hPa Calm   1.0mph /  1.6km/h 94% 0.08in /  2mm
07:00 56.0 °F /  13.3 °C 54.3 °F /  12.4 °C 29.89in /  1012.1hPa Calm   1.0mph /  1.6km/h 94% 0.08in /  2mm
07:05 56.2 °F /  13.4 °C 54.8 °F /  12.7 °C 29.89in /  1012.1hPa Calm   4.0mph /  6.4km/h 95% 0.08in /  2mm
07:15 57.1 °F /  13.9 °C 55.7 °F /  13.2 °C 29.89in /  1012.1hPa Calm   2.0mph /  3.2km/h 95% 0.08in /  2mm
07:20 57.9 °F /  14.4 °C 56.8 °F /  13.8 °C 29.89in /  1012.1hPa WSW 2.0mph /  3.2km/h 4.0mph /  6.4km/h 96% 0.08in /  2mm
07:25 58.2 °F /  14.6 °C 56.8 °F /  13.8 °C 29.90in /  1012.4hPa Calm   6.0mph /  9.7km/h 95% 0.08in /  2mm
07:30 58.3 °F /  14.6 °C 56.9 °F /  13.8 °C 29.90in /  1012.4hPa West 1.0mph /  1.6km/h 6.0mph /  9.7km/h 95% 0.08in /  2mm
07:35 58.6 °F /  14.8 °C 57.2 °F /  14 °C 29.90in /  1012.4hPa Calm   5.0mph /  8km/h 95% 0.08in /  2mm
07:40 59.0 °F /  15 °C 57.6 °F /  14.2 °C 29.90in /  1012.4hPa Calm   4.0mph /  6.4km/h 95% 0.08in /  2mm
07:45 59.4 °F /  15.2 °C 58.0 °F /  14.4 °C 29.90in /  1012.4hPa WNW 1.0mph /  1.6km/h 5.0mph /  8km/h 95% 0.08in /  2mm
07:50 59.6 °F /  15.3 °C 58.2 °F /  14.6 °C 29.90in /  1012.4hPa WSW 1.0mph /  1.6km/h 8.0mph /  12.9km/h 95% 0.08in /  2mm
07:55 59.8 °F /  15.4 °C 58.1 °F /  14.5 °C 29.91in /  1012.8hPa NW 1.0mph /  1.6km/h 8.0mph /  12.9km/h 94% 0.08in /  2mm
08:00 59.9 °F /  15.5 °C 57.9 °F /  14.4 °C 29.91in /  1012.8hPa West 2.0mph /  3.2km/h 6.0mph /  9.7km/h 93% 0.08in /  2mm
08:10 61.2 °F /  16.2 °C 58.6 °F /  14.8 °C 29.91in /  1012.8hPa WNW 4.0mph /  6.4km/h 9.0mph /  14.5km/h 91% 0.08in /  2mm
08:15 61.7 °F /  16.5 °C 57.8 °F /  14.3 °C 29.91in /  1012.8hPa West 3.0mph /  4.8km/h 10.0mph /  16.1km/h 87% 0.08in /  2mm
08:20 62.4 °F /  16.9 °C 58.2 °F /  14.6 °C 29.92in /  1013.1hPa WNW 3.0mph /  4.8km/h 10.0mph /  16.1km/h 86% 0.08in /  2mm
08:25 63.1 °F /  17.3 °C 59.2 °F /  15.1 °C 29.92in /  1013.1hPa Calm   10.0mph /  16.1km/h 87% 0.08in /  2mm
08:30 63.8 °F /  17.7 °C 59.2 °F /  15.1 °C 29.91in /  1012.8hPa WNW 3.0mph /  4.8km/h 7.0mph /  11.3km/h 85% 0.08in /  2mm
08:35 64.2 °F /  17.9 °C 59.3 °F /  15.2 °C 29.91in /  1012.8hPa West 1.0mph /  1.6km/h 8.0mph /  12.9km/h 84% 0.08in /  2mm
08:45 64.1 °F /  17.8 °C 58.8 °F /  14.9 °C 29.92in /  1013.1hPa Calm   7.0mph /  11.3km/h 83% 0.08in /  2mm
08:50 63.9 °F /  17.7 °C 58.3 °F /  14.6 °C 29.92in /  1013.1hPa West 2.0mph /  3.2km/h 7.0mph /  11.3km/h 82% 0.08in /  2mm
08:55 63.4 °F /  17.4 °C 57.8 °F /  14.3 °C 29.92in /  1013.1hPa WNW 3.0mph /  4.8km/h 8.0mph /  12.9km/h 82% 0.08in /  2mm
09:00 63.0 °F /  17.2 °C 57.8 °F /  14.3 °C 29.92in /  1013.1hPa WNW 2.0mph /  3.2km/h 8.0mph /  12.9km/h 83% 0.08in /  2mm
09:05 62.7 °F /  17.1 °C 57.5 °F /  14.2 °C 29.92in /  1013.1hPa WNW 3.0mph /  4.8km/h 8.0mph /  12.9km/h 83% 0.08in /  2mm
09:10 62.6 °F /  17 °C 57.7 °F /  14.3 °C 29.92in /  1013.1hPa NW 4.0mph /  6.4km/h 8.0mph /  12.9km/h 84% 0.08in /  2mm
09:15 62.5 °F /  16.9 °C 57.6 °F /  14.2 °C 29.92in /  1013.1hPa WNW 1.0mph /  1.6km/h 6.0mph /  9.7km/h 84% 0.08in /  2mm
09:20 62.5 °F /  16.9 °C 57.9 °F /  14.4 °C 29.92in /  1013.1hPa NW 3.0mph /  4.8km/h 7.0mph /  11.3km/h 85% 0.08in /  2mm
09:30 63.4 °F /  17.4 °C 58.5 °F /  14.7 °C 29.93in /  1013.4hPa WNW 2.0mph /  3.2km/h 6.0mph /  9.7km/h 84% 0.08in /  2mm
09:35 64.2 °F /  17.9 °C 57.9 °F /  14.4 °C 29.93in /  1013.4hPa WNW 4.0mph /  6.4km/h 7.0mph /  11.3km/h 80% 0.08in /  2mm
09:40 64.9 °F /  18.3 °C 58.9 °F /  14.9 °C 29.92in /  1013.1hPa WNW 1.0mph /  1.6km/h 8.0mph /  12.9km/h 81% 0.08in /  2mm
09:45 66.0 °F /  18.9 °C 60.4 °F /  15.8 °C 29.93in /  1013.4hPa Calm   8.0mph /  12.9km/h 82% 0.08in /  2mm
09:50 66.5 °F /  19.2 °C 59.1 °F /  15.1 °C 29.93in /  1013.4hPa NW 5.0mph /  8km/h 9.0mph /  14.5km/h 77% 0.08in /  2mm
09:55 66.4 °F /  19.1 °C 58.2 °F /  14.6 °C 29.93in /  1013.4hPa NW 1.0mph /  1.6km/h 9.0mph /  14.5km/h 75% 0.08in /  2mm
10:00 66.2 °F /  19 °C 58.1 °F /  14.5 °C 29.93in /  1013.4hPa NW 2.0mph /  3.2km/h 9.0mph /  14.5km/h 75% 0.08in /  2mm
10:05 66.1 °F /  18.9 °C 59.4 °F /  15.2 °C 29.93in /  1013.4hPa Calm   9.0mph /  14.5km/h 79% 0.08in /  2mm
10:10 66.2 °F /  19 °C 58.8 °F /  14.9 °C 29.93in /  1013.4hPa Calm   8.0mph /  12.9km/h 77% 0.08in /  2mm
10:15 66.2 °F /  19 °C 58.1 °F /  14.5 °C 29.93in /  1013.4hPa WNW 3.0mph /  4.8km/h 6.0mph /  9.7km/h 75% 0.08in /  2mm
10:20 65.9 °F /  18.8 °C 58.5 °F /  14.7 °C 29.93in /  1013.4hPa Calm   8.0mph /  12.9km/h 77% 0.08in /  2mm
10:25 65.8 °F /  18.8 °C 58.4 °F /  14.7 °C 29.93in /  1013.4hPa Calm   8.0mph /  12.9km/h 77% 0.08in /  2mm
10:35 66.3 °F /  19.1 °C 58.1 °F /  14.5 °C 29.93in /  1013.4hPa WNW 4.0mph /  6.4km/h 6.0mph /  9.7km/h 75% 0.08in /  2mm
10:40 66.8 °F /  19.3 °C 58.6 °F /  14.8 °C 29.93in /  1013.4hPa WNW 1.0mph /  1.6km/h 5.0mph /  8km/h 75% 0.08in /  2mm
10:45 66.9 °F /  19.4 °C 58.7 °F /  14.8 °C 29.93in /  1013.4hPa Calm   4.0mph /  6.4km/h 75% 0.08in /  2mm
10:55 67.3 °F /  19.6 °C 58.4 °F /  14.7 °C 29.93in /  1013.4hPa Calm   8.0mph /  12.9km/h 73% 0.08in /  2mm
11:00 67.6 °F /  19.8 °C 59.0 °F /  15 °C 29.93in /  1013.4hPa NNW 1.0mph /  1.6km/h 7.0mph /  11.3km/h 74% 0.08in /  2mm
11:05 68.1 °F /  20.1 °C 60.6 °F /  15.9 °C 29.93in /  1013.4hPa Calm   6.0mph /  9.7km/h 77% 0.08in /  2mm
11:10 68.4 °F /  20.2 °C 59.8 °F /  15.4 °C 29.93in /  1013.4hPa WNW 1.0mph /  1.6km/h 5.0mph /  8km/h 74% 0.08in /  2mm
11:15 68.5 °F /  20.3 °C 59.9 °F /  15.5 °C 29.93in /  1013.4hPa Calm   5.0mph /  8km/h 74% 0.08in /  2mm
11:20 68.3 °F /  20.2 °C 58.9 °F /  14.9 °C 29.93in /  1013.4hPa Calm   5.0mph /  8km/h 72% 0.08in /  2mm
11:25 68.9 °F /  20.5 °C 59.5 °F /  15.3 °C 29.93in /  1013.4hPa Calm   1.0mph /  1.6km/h 72% 0.08in /  2mm
11:30 69.5 °F /  20.8 °C 58.9 °F /  14.9 °C 29.93in /  1013.4hPa NNE 2.0mph /  3.2km/h 4.0mph /  6.4km/h 69% 0.08in /  2mm
11:35 70.2 °F /  21.2 °C 60.4 °F /  15.8 °C 29.93in /  1013.4hPa NW 2.0mph /  3.2km/h 6.0mph /  9.7km/h 71% 0.08in /  2mm
11:40 69.9 °F /  21.1 °C 59.7 °F /  15.4 °C 29.93in /  1013.4hPa Calm   7.0mph /  11.3km/h 70% 0.08in /  2mm
11:50 70.0 °F /  21.1 °C 61.3 °F /  16.3 °C 29.92in /  1013.1hPa Calm   6.0mph /  9.7km/h 74% 0.08in /  2mm
11:55 70.1 °F /  21.2 °C 59.5 °F /  15.3 °C 29.92in /  1013.1hPa Calm   2.0mph /  3.2km/h 69% 0.08in /  2mm
12:00 70.0 °F /  21.1 °C 59.8 °F /  15.4 °C 29.93in /  1013.4hPa WNW 3.0mph /  4.8km/h 5.0mph /  8km/h 70% 0.08in /  2mm
12:05 69.9 °F /  21.1 °C 59.3 °F /  15.2 °C 29.93in /  1013.4hPa Calm   6.0mph /  9.7km/h 69% 0.08in /  2mm
12:10 70.2 °F /  21.2 °C 59.6 °F /  15.3 °C 29.93in /  1013.4hPa South 1.0mph /  1.6km/h 6.0mph /  9.7km/h 69% 0.08in /  2mm
12:15 70.6 °F /  21.4 °C 59.5 °F /  15.3 °C 29.93in /  1013.4hPa Calm   5.0mph /  8km/h 68% 0.08in /  2mm
12:25 70.8 °F /  21.6 °C 60.1 °F /  15.6 °C 29.93in /  1013.4hPa Calm   6.0mph /  9.7km/h 69% 0.08in /  2mm
12:30 71.4 °F /  21.9 °C 60.7 °F /  15.9 °C 29.92in /  1013.1hPa WSW 3.0mph /  4.8km/h 6.0mph /  9.7km/h 69% 0.08in /  2mm
12:35 72.2 °F /  22.3 °C 60.2 °F /  15.7 °C 29.92in /  1013.1hPa Calm   6.0mph /  9.7km/h 66% 0.08in /  2mm
12:40 72.7 °F /  22.6 °C 60.7 °F /  15.9 °C 29.92in /  1013.1hPa Calm   3.0mph /  4.8km/h 66% 0.08in /  2mm
12:45 73.0 °F /  22.8 °C 61.0 °F /  16.1 °C 29.92in /  1013.1hPa West 2.0mph /  3.2km/h 6.0mph /  9.7km/h 66% 0.08in /  2mm
12:50 73.0 °F /  22.8 °C 61.4 °F /  16.3 °C 29.92in /  1013.1hPa West 1.0mph /  1.6km/h 7.0mph /  11.3km/h 67% 0.08in /  2mm
12:55 73.4 °F /  23 °C 61.8 °F /  16.6 °C 29.92in /  1013.1hPa West 1.0mph /  1.6km/h 7.0mph /  11.3km/h 67% 0.08in /  2mm
13:00 73.7 °F /  23.2 °C 60.3 °F /  15.7 °C 29.92in /  1013.1hPa WNW 3.0mph /  4.8km/h 9.0mph /  14.5km/h 63% 0.08in /  2mm
13:05 73.7 °F /  23.2 °C 59.9 °F /  15.5 °C 29.92in /  1013.1hPa WSW 2.0mph /  3.2km/h 9.0mph /  14.5km/h 62% 0.08in /  2mm
13:10 73.4 °F /  23 °C 60.9 °F /  16.1 °C 29.92in /  1013.1hPa WNW 2.0mph /  3.2km/h 9.0mph /  14.5km/h 65% 0.08in /  2mm
13:20 72.0 °F /  22.2 °C 60.5 °F /  15.8 °C 29.93in /  1013.4hPa WNW 1.0mph /  1.6km/h 8.0mph /  12.9km/h 67% 0.08in /  2mm
13:25 71.7 °F /  22.1 °C 59.7 °F /  15.4 °C 29.93in /  1013.4hPa WNW 3.0mph /  4.8km/h 9.0mph /  14.5km/h 66% 0.08in /  2mm
13:30 72.2 °F /  22.3 °C 60.6 °F /  15.9 °C 29.93in /  1013.4hPa WNW 2.0mph /  3.2km/h 9.0mph /  14.5km/h 67% 0.08in /  2mm
13:35 72.5 °F /  22.5 °C 60.1 °F /  15.6 °C 29.93in /  1013.4hPa NNE 1.0mph /  1.6km/h 7.0mph /  11.3km/h 65% 0.08in /  2mm
13:40 72.4 °F /  22.4 °C 60.8 °F /  16 °C 29.93in /  1013.4hPa Calm   10.0mph /  16.1km/h 67% 0.08in /  2mm
13:45 73.3 °F /  22.9 °C 61.7 °F /  16.5 °C 29.93in /  1013.4hPa NNW 1.0mph /  1.6km/h 10.0mph /  16.1km/h 67% 0.08in /  2mm
13:50 74.3 °F /  23.5 °C 63.5 °F /  17.5 °C 29.92in /  1013.1hPa WNW 2.0mph /  3.2km/h 7.0mph /  11.3km/h 69% 0.08in /  2mm
13:55 75.0 °F /  23.9 °C 59.7 °F /  15.4 °C 29.92in /  1013.1hPa West 5.0mph /  8km/h 10.0mph /  16.1km/h 59% 0.08in /  2mm
14:00 75.8 °F /  24.3 °C 59.5 °F /  15.3 °C 29.93in /  1013.4hPa WNW 5.0mph /  8km/h 10.0mph /  16.1km/h 57% 0.08in /  2mm
14:05 75.1 °F /  23.9 °C 60.3 °F /  15.7 °C 29.93in /  1013.4hPa NW 1.0mph /  1.6km/h 10.0mph /  16.1km/h 60% 0.08in /  2mm
14:10 75.1 °F /  23.9 °C 59.8 °F /  15.4 °C 29.93in /  1013.4hPa NW 3.0mph /  4.8km/h 12.0mph /  19.3km/h 59% 0.08in /  2mm
14:20 75.4 °F /  24.1 °C 61.9 °F /  16.6 °C 29.92in /  1013.1hPa WNW 3.0mph /  4.8km/h 8.0mph /  12.9km/h 63% 0.08in /  2mm
14:25 76.1 °F /  24.5 °C 58.8 °F /  14.9 °C 29.93in /  1013.4hPa WNW 5.0mph /  8km/h 15.0mph /  24.1km/h 55% 0.08in /  2mm
14:30 76.2 °F /  24.6 °C 60.8 °F /  16 °C 29.93in /  1013.4hPa West 4.0mph /  6.4km/h 15.0mph /  24.1km/h 59% 0.08in /  2mm
14:40 76.1 °F /  24.5 °C 60.8 °F /  16 °C 29.93in /  1013.4hPa West 4.0mph /  6.4km/h 10.0mph /  16.1km/h 59% 0.08in /  2mm
14:45 76.0 °F /  24.4 °C 58.7 °F /  14.8 °C 29.93in /  1013.4hPa WNW 6.0mph /  9.7km/h 10.0mph /  16.1km/h 55% 0.08in /  2mm
14:50 75.1 °F /  23.9 °C 57.3 °F /  14.1 °C 29.93in /  1013.4hPa West 3.0mph /  4.8km/h 12.0mph /  19.3km/h 54% 0.08in /  2mm
14:55 73.9 °F /  23.3 °C 58.2 °F /  14.6 °C 29.93in /  1013.4hPa West 3.0mph /  4.8km/h 12.0mph /  19.3km/h 58% 0.08in /  2mm
15:00 72.9 °F /  22.7 °C 58.7 °F /  14.8 °C 29.93in /  1013.4hPa Calm   9.0mph /  14.5km/h 61% 0.08in /  2mm
15:05 73.0 °F /  22.8 °C 58.8 °F /  14.9 °C 29.93in /  1013.4hPa NW 3.0mph /  4.8km/h 6.0mph /  9.7km/h 61% 0.08in /  2mm
15:10 73.7 °F /  23.2 °C 59.9 °F /  15.5 °C 29.93in /  1013.4hPa NW 1.0mph /  1.6km/h 10.0mph /  16.1km/h 62% 0.08in /  2mm
15:15 74.4 °F /  23.6 °C 58.7 °F /  14.8 °C 29.93in /  1013.4hPa West 5.0mph /  8km/h 10.0mph /  16.1km/h 58% 0.08in /  2mm
15:20 75.3 °F /  24.1 °C 58.5 °F /  14.7 °C 29.93in /  1013.4hPa West 3.0mph /  4.8km/h 8.0mph /  12.9km/h 56% 0.08in /  2mm
15:25 75.5 °F /  24.2 °C 58.2 °F /  14.6 °C 29.93in /  1013.4hPa West 5.0mph /  8km/h 11.0mph /  17.7km/h 55% 0.08in /  2mm
15:30 75.8 °F /  24.3 °C 58.5 °F /  14.7 °C 29.93in /  1013.4hPa West 5.0mph /  8km/h 11.0mph /  17.7km/h 55% 0.08in /  2mm
15:35 75.6 °F /  24.2 °C 60.3 °F /  15.7 °C 29.93in /  1013.4hPa WNW 1.0mph /  1.6km/h 10.0mph /  16.1km/h 59% 0.08in /  2mm
15:40 76.0 °F /  24.4 °C 59.2 °F /  15.1 °C 29.93in /  1013.4hPa WNW 1.0mph /  1.6km/h 8.0mph /  12.9km/h 56% 0.08in /  2mm
15:45 76.1 °F /  24.5 °C 62.2 °F /  16.8 °C 29.93in /  1013.4hPa NW 1.0mph /  1.6km/h 8.0mph /  12.9km/h 62% 0.08in /  2mm
15:50 76.9 °F /  24.9 °C 61.0 °F /  16.1 °C 29.93in /  1013.4hPa Calm   8.0mph /  12.9km/h 58% 0.08in /  2mm
15:55 77.4 °F /  25.2 °C 61.5 °F /  16.4 °C 29.93in /  1013.4hPa NW 2.0mph /  3.2km/h 8.0mph /  12.9km/h 58% 0.08in /  2mm
16:00 77.6 °F /  25.3 °C 60.2 °F /  15.7 °C 29.93in /  1013.4hPa NW 3.0mph /  4.8km/h 10.0mph /  16.1km/h 55% 0.08in /  2mm
16:05 78.0 °F /  25.6 °C 61.1 °F /  16.2 °C 29.93in /  1013.4hPa NW 1.0mph /  1.6km/h 10.0mph /  16.1km/h 56% 0.08in /  2mm
16:15 78.1 °F /  25.6 °C 58.0 °F /  14.4 °C 29.93in /  1013.4hPa WNW 5.0mph /  8km/h 9.0mph /  14.5km/h 50% 0.08in /  2mm
16:20 77.7 °F /  25.4 °C 60.3 °F /  15.7 °C 29.92in /  1013.1hPa WNW 3.0mph /  4.8km/h 9.0mph /  14.5km/h 55% 0.08in /  2mm
16:30 77.5 °F /  25.3 °C 59.0 °F /  15 °C 29.92in /  1013.1hPa NW 3.0mph /  4.8km/h 9.0mph /  14.5km/h 53% 0.08in /  2mm
16:35 77.5 °F /  25.3 °C 59.0 °F /  15 °C 29.93in /  1013.4hPa Calm   7.0mph /  11.3km/h 53% 0.08in /  2mm
16:40 77.9 °F /  25.5 °C 61.5 °F /  16.4 °C 29.92in /  1013.1hPa NW 1.0mph /  1.6km/h 7.0mph /  11.3km/h 57% 0.08in /  2mm
16:45 78.4 °F /  25.8 °C 60.4 °F /  15.8 °C 29.92in /  1013.1hPa NW 1.0mph /  1.6km/h 6.0mph /  9.7km/h 54% 0.08in /  2mm
16:50 78.8 °F /  26 °C 61.3 °F /  16.3 °C 29.92in /  1013.1hPa NNE 1.0mph /  1.6km/h 6.0mph /  9.7km/h 55% 0.08in /  2mm
16:55 79.0 °F /  26.1 °C 57.7 °F /  14.3 °C 29.93in /  1013.4hPa WNW 3.0mph /  4.8km/h 8.0mph /  12.9km/h 48% 0.08in /  2mm
17:00 78.9 °F /  26.1 °C 59.8 °F /  15.4 °C 29.93in /  1013.4hPa Calm   8.0mph /  12.9km/h 52% 0.08in /  2mm
17:05 78.5 °F /  25.8 °C 60.0 °F /  15.6 °C 29.93in /  1013.4hPa NW 2.0mph /  3.2km/h 6.0mph /  9.7km/h 53% 0.08in /  2mm
17:10 78.3 °F /  25.7 °C 61.8 °F /  16.6 °C 29.92in /  1013.1hPa Calm   6.0mph /  9.7km/h 57% 0.08in /  2mm
17:15 78.2 °F /  25.7 °C 59.2 °F /  15.1 °C 29.93in /  1013.4hPa WNW 5.0mph /  8km/h 7.0mph /  11.3km/h 52% 0.08in /  2mm
17:25 77.7 °F /  25.4 °C 57.6 °F /  14.2 °C 29.92in /  1013.1hPa NW 4.0mph /  6.4km/h 9.0mph /  14.5km/h 50% 0.08in /  2mm
17:29 77.4 °F /  25.2 °C 60.0 °F /  15.6 °C 29.93in /  1013.4hPa NW 2.0mph /  3.2km/h 9.0mph /  14.5km/h 55% 0.08in /  2mm
17:35 77.4 °F /  25.2 °C 59.0 °F /  15 °C 29.93in /  1013.4hPa WNW 2.0mph /  3.2km/h 9.0mph /  14.5km/h 53% 0.08in /  2mm
17:40 77.3 °F /  25.2 °C 57.2 °F /  14 °C 29.93in /  1013.4hPa NW 2.0mph /  3.2km/h 9.0mph /  14.5km/h 50% 0.08in /  2mm
17:45 77.2 °F /  25.1 °C 59.8 °F /  15.4 °C 29.93in /  1013.4hPa Calm   9.0mph /  14.5km/h 55% 0.08in /  2mm
17:55 77.2 °F /  25.1 °C 59.3 °F /  15.2 °C 29.93in /  1013.4hPa Calm   8.0mph /  12.9km/h 54% 0.08in /  2mm
18:00 77.3 °F /  25.2 °C 58.9 °F /  14.9 °C 29.93in /  1013.4hPa Calm   7.0mph /  11.3km/h 53% 0.08in /  2mm
18:04 77.2 °F /  25.1 °C 58.8 °F /  14.9 °C 29.93in /  1013.4hPa Calm   5.0mph /  8km/h 53% 0.08in /  2mm
18:10 77.2 °F /  25.1 °C 58.8 °F /  14.9 °C 29.93in /  1013.4hPa NW 1.0mph /  1.6km/h 5.0mph /  8km/h 53% 0.08in /  2mm
18:15 77.0 °F /  25 °C 59.1 °F /  15.1 °C 29.93in /  1013.4hPa Calm   5.0mph /  8km/h 54% 0.08in /  2mm
18:25 76.9 °F /  24.9 °C 60.0 °F /  15.6 °C 29.93in /  1013.4hPa Calm   5.0mph /  8km/h 56% 0.08in /  2mm
18:30 76.7 °F /  24.8 °C 58.8 °F /  14.9 °C 29.93in /  1013.4hPa Calm   4.0mph /  6.4km/h 54% 0.08in /  2mm
18:40 75.9 °F /  24.4 °C 59.6 °F /  15.3 °C 29.92in /  1013.1hPa Calm   3.0mph /  4.8km/h 57% 0.08in /  2mm
18:45 75.7 °F /  24.3 °C 60.4 °F /  15.8 °C 29.92in /  1013.1hPa Calm   3.0mph /  4.8km/h 59% 0.08in /  2mm
18:55 75.1 °F /  23.9 °C 60.8 °F /  16 °C 29.92in /  1013.1hPa Calm   1.0mph /  1.6km/h 61% 0.08in /  2mm
19:00 74.8 °F /  23.8 °C 60.5 °F /  15.8 °C 29.93in /  1013.4hPa Calm   1.0mph /  1.6km/h 61% 0.08in /  2mm
19:05 74.8 °F /  23.8 °C 60.9 °F /  16.1 °C 29.93in /  1013.4hPa Calm   1.0mph /  1.6km/h 62% 0.08in /  2mm
19:10 74.7 °F /  23.7 °C 61.3 °F /  16.3 °C 29.93in /  1013.4hPa Calm   1.0mph /  1.6km/h 63% 0.08in /  2mm
19:15 74.2 °F /  23.4 °C 60.8 °F /  16 °C 29.93in /  1013.4hPa Calm     63% 0.08in /  2mm
19:20 73.3 °F /  22.9 °C 61.7 °F /  16.5 °C 29.93in /  1013.4hPa Calm     67% 0.08in /  2mm
19:25 72.2 °F /  22.3 °C 60.6 °F /  15.9 °C 29.92in /  1013.1hPa Calm     67% 0.08in /  2mm
19:30 71.2 °F /  21.8 °C 60.5 °F /  15.8 °C 29.93in /  1013.4hPa Calm     69% 0.08in /  2mm
19:35 70.2 °F /  21.2 °C 60.0 °F /  15.6 °C 29.93in /  1013.4hPa Calm     70% 0.08in /  2mm
19:45 68.3 °F /  20.2 °C 60.1 °F /  15.6 °C 29.93in /  1013.4hPa Calm     75% 0.08in /  2mm
19:49 67.2 °F /  19.6 °C 59.4 °F /  15.2 °C 29.93in /  1013.4hPa Calm     76% 0.08in /  2mm
19:55 66.1 °F /  18.9 °C 58.3 °F /  14.6 °C 29.93in /  1013.4hPa Calm     76% 0.08in /  2mm
20:00 65.2 °F /  18.4 °C 57.8 °F /  14.3 °C 29.93in /  1013.4hPa Calm     77% 0.08in /  2mm
20:09 63.1 °F /  17.3 °C 56.5 °F /  13.6 °C 29.93in /  1013.4hPa Calm     79% 0.08in /  2mm
20:15 62.4 °F /  16.9 °C 56.2 °F /  13.4 °C 29.93in /  1013.4hPa Calm     80% 0.08in /  2mm
20:20 61.7 °F /  16.5 °C 56.2 °F /  13.4 °C 29.93in /  1013.4hPa Calm     82% 0.08in /  2mm
20:25 61.1 °F /  16.2 °C 55.6 °F /  13.1 °C 29.93in /  1013.4hPa Calm     82% 0.08in /  2mm
20:35 59.9 °F /  15.5 °C 55.1 °F /  12.8 °C 29.93in /  1013.4hPa Calm   1.0mph /  1.6km/h 84% 0.08in /  2mm
20:45 59.0 °F /  15 °C 54.5 °F /  12.5 °C 29.94in /  1013.8hPa Calm     85% 0.08in /  2mm
20:50 59.0 °F /  15 °C 54.8 °F /  12.7 °C 29.94in /  1013.8hPa Calm     86% 0.08in /  2mm
20:54 58.7 °F /  14.8 °C 54.5 °F /  12.5 °C 29.94in /  1013.8hPa Calm     86% 0.08in /  2mm
21:00 58.5 °F /  14.7 °C 54.6 °F /  12.6 °C 29.94in /  1013.8hPa Calm     87% 0.08in /  2mm
21:05 58.3 °F /  14.6 °C 54.5 °F /  12.5 °C 29.95in /  1014.1hPa Calm     87% 0.08in /  2mm
21:09 58.1 °F /  14.5 °C 54.3 °F /  12.4 °C 29.95in /  1014.1hPa Calm     87% 0.08in /  2mm
21:15 57.9 °F /  14.4 °C 54.4 °F /  12.4 °C 29.95in /  1014.1hPa Calm     88% 0.08in /  2mm
21:20 57.7 °F /  14.3 °C 54.2 °F /  12.3 °C 29.95in /  1014.1hPa Calm     88% 0.08in /  2mm
21:25 57.5 °F /  14.2 °C 54.0 °F /  12.2 °C 29.95in /  1014.1hPa Calm     88% 0.08in /  2mm
21:30 57.4 °F /  14.1 °C 54.2 °F /  12.3 °C 29.95in /  1014.1hPa Calm     89% 0.08in /  2mm
21:35 57.3 °F /  14.1 °C 54.1 °F /  12.3 °C 29.95in /  1014.1hPa Calm     89% 0.08in /  2mm
21:40 57.2 °F /  14 °C 54.0 °F /  12.2 °C 29.95in /  1014.1hPa Calm     89% 0.08in /  2mm
21:45 57.1 °F /  13.9 °C 54.2 °F /  12.3 °C 29.95in /  1014.1hPa Calm     90% 0.08in /  2mm
21:49 57.1 °F /  13.9 °C 54.2 °F /  12.3 °C 29.95in /  1014.1hPa Calm     90% 0.08in /  2mm
21:55 57.1 °F /  13.9 °C 54.2 °F /  12.3 °C 29.95in /  1014.1hPa Calm     90% 0.08in /  2mm
21:59 57.1 °F /  13.9 °C 54.2 °F /  12.3 °C 29.95in /  1014.1hPa Calm     90% 0.08in /  2mm
22:05 57.0 °F /  13.9 °C 54.4 °F /  12.4 °C 29.95in /  1014.1hPa Calm     91% 0.08in /  2mm
22:10 56.9 °F /  13.8 °C 54.3 °F /  12.4 °C 29.95in /  1014.1hPa Calm     91% 0.08in /  2mm
22:15 56.9 °F /  13.8 °C 54.3 °F /  12.4 °C 29.95in /  1014.1hPa Calm     91% 0.08in /  2mm
22:19 56.9 °F /  13.8 °C 54.3 °F /  12.4 °C 29.95in /  1014.1hPa Calm     91% 0.08in /  2mm
22:25 57.0 °F /  13.9 °C 54.7 °F /  12.6 °C 29.95in /  1014.1hPa Calm     92% 0.08in /  2mm
22:29 57.1 °F /  13.9 °C 54.8 °F /  12.7 °C 29.96in /  1014.4hPa Calm     92% 0.08in /  2mm
22:35 57.1 °F /  13.9 °C 54.8 °F /  12.7 °C 29.96in /  1014.4hPa Calm     92% 0.08in /  2mm
22:40 57.2 °F /  14 °C 54.9 °F /  12.7 °C 29.96in /  1014.4hPa NW 1.0mph /  1.6km/h 2.0mph /  3.2km/h 92% 0.08in /  2mm
22:44 57.1 °F /  13.9 °C 54.8 °F /  12.7 °C 29.96in /  1014.4hPa Calm   2.0mph /  3.2km/h 92% 0.08in /  2mm
22:50 57.1 °F /  13.9 °C 55.1 °F /  12.8 °C 29.96in /  1014.4hPa Calm   1.0mph /  1.6km/h 93% 0.08in /  2mm
23:00 56.9 °F /  13.8 °C 54.6 °F /  12.6 °C 29.96in /  1014.4hPa Calm     92% 0.08in /  2mm
23:04 56.9 °F /  13.8 °C 54.9 °F /  12.7 °C 29.96in /  1014.4hPa Calm   1.0mph /  1.6km/h 93% 0.08in /  2mm
23:09 56.9 °F /  13.8 °C 54.9 °F /  12.7 °C 29.96in /  1014.4hPa Calm   1.0mph /  1.6km/h 93% 0.08in /  2mm
23:15 56.9 °F /  13.8 °C 54.9 °F /  12.7 °C 29.96in /  1014.4hPa Calm   1.0mph /  1.6km/h 93% 0.08in /  2mm
23:20 56.9 °F /  13.8 °C 54.9 °F /  12.7 °C 29.96in /  1014.4hPa Calm   1.0mph /  1.6km/h 93% 0.08in /  2mm
23:24 56.9 °F /  13.8 °C 54.9 °F /  12.7 °C 29.96in /  1014.4hPa Calm   1.0mph /  1.6km/h 93% 0.08in /  2mm
23:30 56.8 °F /  13.8 °C 54.8 °F /  12.7 °C 29.97in /  1014.8hPa Calm   1.0mph /  1.6km/h 93% 0.08in /  2mm
23:35 56.7 °F /  13.7 °C 54.7 °F /  12.6 °C 29.97in /  1014.8hPa Calm     93% 0.08in /  2mm
23:40 56.7 °F /  13.7 °C 54.7 °F /  12.6 °C 29.97in /  1014.8hPa Calm     93% 0.08in /  2mm
23:45 56.7 °F /  13.7 °C 54.7 °F /  12.6 °C 29.97in /  1014.8hPa Calm   1.0mph /  1.6km/h 93% 0.08in /  2mm
23:50 56.6 °F /  13.7 °C 54.6 °F /  12.6 °C 29.97in /  1014.8hPa Calm   1.0mph /  1.6km/h 93% 0.08in /  2mm
23:55 56.6 °F /  13.7 °C 54.6 °F /  12.6 °C 29.97in /  1014.8hPa Calm   1.0mph /  1.6km/h 93% 0.08in /  2mm
23:59 56.7 °F /  13.7 °C 54.7 °F /  12.6 °C 29.97in /  1014.8hPa Calm   3.0mph /  4.8km/h 93% 0.08in /  2mm
Westford Weather
Compliments of Weather Underground

 
 
Current Radar Loop:

Copyright © WestfordWeather.net 2007-2014. All rights reserved.